CheckWX is a tool to help pilots better visualize weather data.  It is not intended as a substitute for an official pre-flight weather briefing.

03:09:55 UTC

KRNC METAR
Warren County Memorial Airport
Mc Minnville, Tennessee, USA
Current

15 mins ago

KRNC 120255Z AUTO 00000KT 10SM CLR 22/20 A2996 RMK A01
Observed
Jul-12 @ 02:55 UTC
Visibility
10 SM
Flight Rules
VFR
Cloud Levels
  • Clear skies
Temperature
22°C / 72°F
Dewpoint
20°C / 68°F
Humidity
88%
Altimeter
29.96" Hg
Pressure
1014.52 hPa
Previous

35 mins ago

KRNC 120235Z AUTO 00000KT 10SM CLR 22/20 A2996 RMK A01
Observed
Jul-12 @ 02:35 UTC
Visibility
10 SM
Flight Rules
VFR
Cloud Levels
  • Clear skies
Temperature
22°C / 72°F
Dewpoint
20°C / 68°F
Humidity
88%
Altimeter
29.96" Hg
Pressure
1014.52 hPa
Previous

55 mins ago

KRNC 120215Z AUTO 00000KT 10SM CLR 23/20 A2995 RMK A01
Observed
Jul-12 @ 02:15 UTC
Visibility
10 SM
Flight Rules
VFR
Cloud Levels
  • Clear skies
Temperature
23°C / 73°F
Dewpoint
20°C / 68°F
Humidity
83%
Altimeter
29.95" Hg
Pressure
1014.22 hPa